Time;durP1;ratioP1;P1;durP2;ratioP2;P2;SDS_P1;SDS_P2;PMS_P1;PMS_P2;Temp;Humidity;BMP_temperature;BMP_pressure;BME280_temperature;BME280_humidity;BME280_pressure;Samples;Min_cycle;Max_cycle;Signal;HPM_P1;HPM_P2
2022/04/22 00:00:50;;;;;;;6.72;5.97;;;9.60;99.90;;;;;;6008596;23;20217;-71
2022/04/22 00:03:17;;;;;;;6.65;6.05;;;9.60;99.90;;;;;;6013753;23;20244;-71
2022/04/22 00:05:46;;;;;;;6.60;6.00;;;9.60;99.90;;;;;;6018353;23;20192;-71
2022/04/22 00:08:13;;;;;;;6.13;5.70;;;9.60;99.90;;;;;;6021476;23;20197;-70
2022/04/22 00:11:29;;;;;;;6.28;5.75;;;9.50;99.90;;;;;;6005594;23;20206;-70
2022/04/22 00:13:27;;;;;;;6.22;5.63;;;9.50;99.90;;;;;;6015327;23;20589;-71
2022/04/22 00:15:54;;;;;;;6.03;5.53;;;9.50;99.90;;;;;;6006438;23;20223;-71
2022/04/22 00:18:21;;;;;;;6.30;5.80;;;9.50;99.90;;;;;;6005247;23;20198;-70
2022/04/22 00:20:50;;;;;;;6.50;5.90;;;9.50;99.90;;;;;;6019811;23;20198;-70
2022/04/22 00:23:16;;;;;;;6.70;6.10;;;9.40;99.90;;;;;;6015353;23;20228;-71
2022/04/22 00:25:43;;;;;;;6.78;6.20;;;9.40;99.90;;;;;;6022070;23;20196;-71
2022/04/22 00:28:11;;;;;;;6.72;6.22;;;9.30;99.90;;;;;;6006873;23;20226;-71
2022/04/22 00:30:38;;;;;;;6.60;6.00;;;9.30;99.90;;;;;;6008764;23;20220;-70
2022/04/22 00:33:06;;;;;;;6.28;5.78;;;9.30;99.90;;;;;;6005505;23;20251;-71
2022/04/22 00:35:33;;;;;;;6.72;6.13;;;9.30;99.90;;;;;;6026951;23;20234;-70
2022/04/22 00:38:01;;;;;;;6.97;6.38;;;9.20;99.90;;;;;;6005795;23;20282;-71
2022/04/22 00:40:28;;;;;;;7.93;6.55;;;9.20;99.90;;;;;;6007166;23;20191;-71
2022/04/22 00:42:55;;;;;;;6.75;6.15;;;9.00;99.90;;;;;;6025973;23;20297;-71
2022/04/22 00:45:22;;;;;;;7.00;6.30;;;9.20;99.90;;;;;;6011241;23;20202;-70
2022/04/22 00:47:49;;;;;;;7.20;6.50;;;9.20;99.90;;;;;;6006404;23;20587;-70
2022/04/22 00:50:16;;;;;;;7.18;6.57;;;9.20;99.90;;;;;;6005387;23;20595;-71
2022/04/22 00:52:43;;;;;;;7.90;7.10;;;9.10;99.90;;;;;;6026414;23;20314;-71
2022/04/22 00:55:12;;;;;;;7.25;6.60;;;9.10;99.90;;;;;;6028235;23;20187;-71
2022/04/22 00:57:39;;;;;;;8.00;7.30;;;9.10;99.90;;;;;;6007504;23;20204;-71
2022/04/22 01:00:07;;;;;;;8.32;7.53;;;9.00;99.90;;;;;;6024507;23;20219;-71
2022/04/22 01:02:34;;;;;;;8.88;8.07;;;9.00;99.90;;;;;;6006789;23;20281;-71
2022/04/22 01:10:31;;;;;;;7.97;7.22;;;9.00;99.90;;;;;;6010400;23;20201;-69
2022/04/22 01:12:58;;;;;;;8.15;7.53;;;9.00;99.90;;;;;;6008475;23;20268;-69
2022/04/22 01:15:26;;;;;;;8.55;7.75;;;9.00;99.90;;;;;;6009159;23;20870;-71
2022/04/22 01:17:53;;;;;;;8.10;7.40;;;9.00;99.90;;;;;;6010485;23;20184;-71
2022/04/22 01:20:20;;;;;;;9.48;8.57;;;9.00;99.90;;;;;;6013805;23;20276;-71
2022/04/22 01:22:48;;;;;;;8.90;8.10;;;8.90;99.90;;;;;;6030537;23;20262;-71
2022/04/22 01:25:15;;;;;;;9.15;8.25;;;8.90;99.90;;;;;;6013594;23;20275;-70
2022/04/22 01:27:44;;;;;;;9.45;8.55;;;8.90;99.90;;;;;;6022319;23;20195;-71
2022/04/22 01:30:11;;;;;;;9.30;8.50;;;9.00;99.90;;;;;;6022704;23;20206;-71
2022/04/22 01:32:38;;;;;;;9.05;8.25;;;8.80;99.90;;;;;;6010528;23;20277;-72
2022/04/22 01:35:06;;;;;;;9.90;9.00;;;8.80;99.90;;;;;;6020180;23;20200;-71
2022/04/22 01:37:33;;;;;;;9.70;8.90;;;8.80;99.90;;;;;;6011289;23;20199;-71
2022/04/22 01:40:01;;;;;;;9.05;8.25;;;8.80;99.90;;;;;;6016528;23;20251;-71
2022/04/22 01:42:28;;;;;;;10.05;9.05;;;8.70;99.90;;;;;;6007346;23;20196;-71
2022/04/22 01:44:56;;;;;;;9.93;8.93;;;8.70;99.90;;;;;;6004204;23;20285;-70
2022/04/22 01:47:23;;;;;;;9.88;8.93;;;8.70;99.90;;;;;;6008330;23;20202;-70
2022/04/22 01:49:50;;;;;;;10.32;9.43;;;8.60;99.90;;;;;;6011724;23;20660;-70
2022/04/22 01:52:17;;;;;;;9.40;8.48;;;8.60;99.90;;;;;;6028355;23;20205;-70
2022/04/22 01:54:44;;;;;;;9.85;8.95;;;8.60;99.90;;;;;;6011112;23;20284;-70
2022/04/22 01:57:12;;;;;;;10.25;9.27;;;8.50;99.90;;;;;;6013061;23;20191;-70
2022/04/22 01:59:40;;;;;;;10.38;9.43;;;8.50;99.90;;;;;;6003641;23;20191;-72
2022/04/22 02:02:07;;;;;;;11.13;10.13;;;8.50;99.90;;;;;;6002939;23;20273;-70
2022/04/22 02:04:34;;;;;;;9.98;9.07;;;8.50;99.90;;;;;;6011789;23;20684;-70
2022/04/22 02:07:01;;;;;;;11.15;10.05;;;8.50;99.90;;;;;;6007888;23;20192;-70
2022/04/22 02:09:29;;;;;;;10.20;9.23;;;8.40;99.90;;;;;;6004999;23;20187;-71
2022/04/22 02:11:56;;;;;;;10.88;9.77;;;8.40;99.90;;;;;;6018634;23;20221;-71
2022/04/22 02:14:24;;;;;;;12.23;11.13;;;8.40;99.90;;;;;;6025815;23;20219;-71
2022/04/22 02:16:52;;;;;;;11.00;10.00;;;8.40;99.90;;;;;;6028393;23;20202;-71
2022/04/22 02:19:19;;;;;;;11.45;10.35;;;8.40;99.90;;;;;;6012809;23;20716;-71
2022/04/22 02:21:46;;;;;;;10.77;9.77;;;8.40;99.90;;;;;;6006465;23;20621;-71
2022/04/22 02:24:14;;;;;;;12.27;11.18;;;8.40;99.90;;;;;;6020230;23;20309;-71
2022/04/22 02:29:27;;;;;;;13.20;11.13;;;8.40;99.90;;;;;;6005406;23;20186;-72
2022/04/22 02:31:54;;;;;;;12.43;11.23;;;8.40;99.90;;;;;;6011348;23;20195;-72
2022/04/22 02:34:21;;;;;;;13.77;12.48;;;8.30;99.90;;;;;;6030424;23;20619;-71
2022/04/22 02:36:48;;;;;;;13.20;11.95;;;8.30;99.90;;;;;;6026003;23;20191;-71
2022/04/22 02:39:15;;;;;;;13.57;11.23;;;8.30;99.90;;;;;;6003114;23;20229;-71
2022/04/22 02:47:13;;;;;;;13.05;11.85;;;8.20;99.90;;;;;;6012341;23;20202;-71
2022/04/22 02:49:43;;;;;;;14.15;12.65;;;8.10;99.90;;;;;;6031117;23;20190;-71
2022/04/22 02:52:10;;;;;;;13.93;12.63;;;8.10;99.90;;;;;;6014222;23;20596;-71
2022/04/22 02:54:37;;;;;;;14.13;12.65;;;8.10;99.90;;;;;;6018114;23;20388;-71
2022/04/22 02:57:04;;;;;;;14.52;13.23;;;8.10;99.90;;;;;;6012717;23;20243;-71
2022/04/22 02:59:34;;;;;;;14.77;13.48;;;8.10;99.90;;;;;;6023628;23;20226;-72
2022/04/22 03:02:01;;;;;;;14.55;12.82;;;8.10;99.90;;;;;;6006401;23;20229;-71
2022/04/22 03:04:28;;;;;;;13.50;12.20;;;8.10;99.90;;;;;;6026718;23;20279;-71
2022/04/22 03:06:56;;;;;;;13.85;12.55;;;8.10;99.90;;;;;;6004771;23;20293;-70
2022/04/22 03:09:23;;;;;;;13.93;12.57;;;8.10;99.90;;;;;;6003996;23;20191;-71
2022/04/22 03:11:50;;;;;;;13.50;12.10;;;8.00;99.90;;;;;;6005583;23;20221;-71
2022/04/22 03:14:18;;;;;;;14.48;13.10;;;8.00;99.90;;;;;;6018685;23;20305;-71
2022/04/22 03:16:46;;;;;;;13.75;12.45;;;8.00;99.90;;;;;;6006955;23;20237;-71
2022/04/22 03:19:13;;;;;;;13.38;12.07;;;8.00;99.90;;;;;;6032037;23;20196;-71
2022/04/22 03:21:40;;;;;;;12.77;11.48;;;8.00;99.90;;;;;;6007376;23;20553;-70
2022/04/22 03:24:07;;;;;;;14.20;12.80;;;8.00;99.90;;;;;;6014731;23;20576;-70
2022/04/22 03:26:35;;;;;;;14.18;12.68;;;8.00;99.90;;;;;;6012011;23;20272;-71
2022/04/22 03:29:02;;;;;;;13.32;11.95;;;8.00;99.90;;;;;;6018469;23;20657;-71
2022/04/22 03:31:29;;;;;;;14.25;12.80;;;8.00;99.90;;;;;;6010398;23;20234;-70
2022/04/22 03:33:57;;;;;;;14.52;12.63;;;8.00;99.90;;;;;;6006763;23;20238;-71
2022/04/22 03:36:24;;;;;;;15.55;13.95;;;8.00;99.90;;;;;;6003964;23;20658;-71
2022/04/22 03:38:51;;;;;;;14.90;13.40;;;7.90;99.90;;;;;;6004397;23;21309;-71
2022/04/22 03:41:18;;;;;;;15.25;13.75;;;7.90;99.90;;;;;;6004346;23;20273;-71
2022/04/22 03:43:45;;;;;;;14.10;12.80;;;7.90;99.90;;;;;;6008919;23;20214;-71
2022/04/22 03:46:12;;;;;;;15.40;13.80;;;7.80;99.90;;;;;;6020166;23;20190;-71
2022/04/22 03:48:39;;;;;;;15.95;14.45;;;7.80;99.90;;;;;;6029984;23;20639;-70
2022/04/22 03:51:07;;;;;;;15.73;14.23;;;7.80;99.90;;;;;;6005876;23;20316;-79
2022/04/22 03:53:37;;;;;;;16.35;14.75;;;7.90;99.90;;;;;;5981271;23;20230;-79
2022/04/22 03:58:46;;;;;;;15.75;14.15;;;7.70;99.90;;;;;;5964225;23;20221;-79
2022/04/22 04:01:13;;;;;;;17.60;14.93;;;7.70;99.90;;;;;;5971726;23;20298;-79
2022/04/22 04:03:41;;;;;;;16.80;15.15;;;7.60;99.90;;;;;;5976476;23;20730;-79
2022/04/22 04:06:09;;;;;;;17.27;15.48;;;7.60;99.90;;;;;;5976183;24;20206;-80
2022/04/22 04:08:36;;;;;;;17.60;15.80;;;7.60;99.90;;;;;;5977322;24;20192;-80
2022/04/22 04:16:31;;;;;;;18.42;16.48;;;7.60;99.90;;;;;;5977042;24;20210;-79
2022/04/22 04:24:25;;;;;;;19.10;17.10;;;7.50;99.90;;;;;;5975586;24;20562;-79
2022/04/22 04:26:52;;;;;;;19.42;17.42;;;7.50;99.90;;;;;;5976437;23;20191;-79
2022/04/22 04:29:19;;;;;;;18.58;16.77;;;7.50;99.90;;;;;;5975013;24;20195;-79
2022/04/22 04:31:47;;;;;;;18.48;16.67;;;7.50;99.90;;;;;;5975661;23;20278;-79
2022/04/22 04:34:14;;;;;;;19.98;17.88;;;7.50;99.90;;;;;;5974460;24;20769;-79
2022/04/22 04:36:42;;;;;;;18.63;16.83;;;7.50;99.90;;;;;;5977289;24;20271;-79
2022/04/22 04:39:09;;;;;;;19.98;18.00;;;7.50;99.90;;;;;;5975791;24;20278;-81
2022/04/22 04:41:36;;;;;;;19.73;17.65;;;7.50;99.90;;;;;;5975066;23;20897;-81
2022/04/22 04:44:03;;;;;;;19.27;17.27;;;7.60;99.90;;;;;;5975642;23;20258;-82
2022/04/22 04:46:30;;;;;;;18.70;16.90;;;7.60;99.90;;;;;;5974989;24;20187;-81
2022/04/22 04:49:01;;;;;;;21.63;19.33;;;7.60;99.90;;;;;;5964898;23;20659;-81
2022/04/22 04:51:28;;;;;;;18.80;16.88;;;7.60;99.90;;;;;;5970151;24;20237;-80
2022/04/22 04:53:56;;;;;;;19.35;17.40;;;7.60;99.90;;;;;;5972501;23;20353;-81
2022/04/22 04:56:23;;;;;;;21.50;19.42;;;7.70;99.90;;;;;;5968804;24;20559;-81
2022/04/22 04:58:50;;;;;;;22.40;19.30;;;7.70;99.90;;;;;;5973755;24;20214;-81
2022/04/22 05:01:17;;;;;;;20.33;18.35;;;7.70;99.90;;;;;;5977048;24;20237;-81
2022/04/22 05:03:44;;;;;;;21.75;19.40;;;7.80;99.90;;;;;;5972423;23;20739;-82
2022/04/22 05:06:12;;;;;;;22.33;19.38;;;7.90;99.90;;;;;;5971669;24;20192;-81
2022/04/22 05:08:39;;;;;;;20.27;18.17;;;7.90;99.90;;;;;;5972231;24;20201;-80
2022/04/22 05:11:08;;;;;;;21.60;19.50;;;8.00;99.90;;;;;;5962800;24;20199;-82
2022/04/22 05:13:34;;;;;;;21.38;19.08;;;8.00;99.90;;;;;;5969015;24;20227;-81
2022/04/22 05:16:02;;;;;;;21.25;18.92;;;8.10;99.90;;;;;;5946581;23;20191;-81
2022/04/22 05:18:29;;;;;;;20.40;18.40;;;8.20;99.90;;;;;;5966616;24;20183;-80
2022/04/22 05:20:57;;;;;;;21.67;19.58;;;8.20;99.90;;;;;;5970217;24;20763;-80
2022/04/22 05:23:24;;;;;;;21.95;19.67;;;8.30;99.90;;;;;;5975653;24;20371;-80
2022/04/22 05:25:51;;;;;;;21.05;18.95;;;8.40;99.90;;;;;;5972073;24;20738;-81
2022/04/22 05:28:19;;;;;;;21.05;18.85;;;8.40;99.90;;;;;;5973588;24;20271;-81
2022/04/22 05:33:30;;;;;;;19.83;17.83;;;8.60;99.90;;;;;;5935398;24;20239;-81
2022/04/22 05:35:58;;;;;;;20.13;18.13;;;8.70;99.90;;;;;;5967613;24;20194;-83
2022/04/22 05:38:25;;;;;;;20.20;18.15;;;8.70;99.90;;;;;;5967485;24;20179;-80
2022/04/22 05:40:51;;;;;;;20.60;18.58;;;8.80;99.90;;;;;;5963772;24;20266;-80
2022/04/22 05:43:20;;;;;;;21.17;19.05;;;8.90;99.90;;;;;;5967618;23;20211;-82
2022/04/22 05:45:47;;;;;;;20.55;18.45;;;8.90;99.90;;;;;;5972339;23;20262;-81
2022/04/22 05:48:14;;;;;;;21.67;18.88;;;9.00;99.90;;;;;;5970781;24;20199;-82
2022/04/22 05:50:42;;;;;;;20.77;18.65;;;9.10;99.90;;;;;;5968749;24;20530;-81
2022/04/22 05:53:09;;;;;;;20.70;18.60;;;9.20;99.90;;;;;;5973503;24;20228;-81
2022/04/22 05:55:36;;;;;;;15.27;13.70;;;9.40;99.90;;;;;;5964139;24;20221;-79
2022/04/22 05:58:04;;;;;;;19.02;17.13;;;9.50;99.90;;;;;;5970442;24;20190;-81
2022/04/22 06:00:32;;;;;;;18.50;16.80;;;9.50;99.90;;;;;;5972664;24;20185;-81
2022/04/22 06:03:00;;;;;;;21.10;19.05;;;9.70;99.90;;;;;;5973873;23;20206;-79
2022/04/22 06:05:27;;;;;;;20.92;19.02;;;9.80;99.90;;;;;;5972086;24;20834;-78
2022/04/22 06:10:41;;;;;;;20.83;18.73;;;10.00;99.90;;;;;;5968809;23;20189;-77
2022/04/22 06:13:08;;;;;;;21.55;19.30;;;10.10;99.90;;;;;;5973164;24;20270;-78
2022/04/22 06:15:36;;;;;;;21.35;19.38;;;10.20;99.90;;;;;;5970019;23;20287;-79
2022/04/22 06:18:04;;;;;;;21.20;19.13;;;10.20;99.90;;;;;;5963262;23;20228;-79
2022/04/22 06:20:31;;;;;;;20.85;18.95;;;10.10;99.90;;;;;;5965369;23;20273;-78
2022/04/22 06:22:58;;;;;;;21.00;18.88;;;10.10;99.90;;;;;;5970061;24;20214;-79
2022/04/22 06:25:27;;;;;;;20.60;18.55;;;10.10;99.90;;;;;;5956777;23;20200;-79
2022/04/22 06:27:55;;;;;;;21.23;19.23;;;10.20;99.90;;;;;;5963592;24;20553;-79
2022/04/22 06:30:23;;;;;;;20.73;18.73;;;10.20;99.90;;;;;;5962877;23;20185;-78
2022/04/22 06:32:54;;;;;;;21.30;19.13;;;10.40;99.90;;;;;;5969219;23;20242;-79
2022/04/22 06:35:22;;;;;;;21.13;19.13;;;10.50;99.90;;;;;;5974247;24;20241;-78
2022/04/22 06:37:52;;;;;;;21.13;19.08;;;10.70;99.90;;;;;;5970304;24;20650;-79
2022/04/22 06:45:52;;;;;;;19.73;17.88;;;11.20;99.90;;;;;;5973627;24;20292;-79
2022/04/22 06:48:25;;;;;;;19.05;17.17;;;11.40;99.90;;;;;;5970219;23;20218;-79
2022/04/22 06:50:53;;;;;;;19.25;17.55;;;11.60;99.90;;;;;;5971694;24;20583;-78
2022/04/22 06:53:21;;;;;;;18.65;16.83;;;11.90;99.90;;;;;;5959834;24;20824;-78
2022/04/22 06:55:49;;;;;;;19.23;17.33;;;12.30;99.90;;;;;;5972314;24;20702;-80
2022/04/22 06:58:18;;;;;;;19.20;17.38;;;12.90;99.90;;;;;;5970564;24;20470;-79
2022/04/22 07:00:46;;;;;;;18.80;17.07;;;13.50;99.90;;;;;;5965402;23;20184;-80
2022/04/22 07:03:15;;;;;;;18.40;16.63;;;14.10;99.90;;;;;;5967686;23;20461;-79
2022/04/22 07:05:45;;;;;;;19.70;17.90;;;14.60;99.90;;;;;;5965720;24;21025;-79
2022/04/22 07:08:13;;;;;;;18.70;17.10;;;15.20;99.90;;;;;;5970790;24;20514;-80
2022/04/22 07:10:40;;;;;;;18.40;16.60;;;15.60;99.90;;;;;;5968683;23;20448;-79
2022/04/22 07:13:09;;;;;;;18.13;16.43;;;16.10;99.90;;;;;;5968829;23;20457;-80
2022/04/22 07:15:36;;;;;;;18.83;17.13;;;16.70;98.80;;;;;;5967433;23;20473;-80
2022/04/22 07:18:04;;;;;;;18.57;16.67;;;17.10;97.50;;;;;;5971057;24;20488;-80
2022/04/22 07:20:32;;;;;;;18.10;16.50;;;17.40;96.50;;;;;;5972881;24;20537;-80
2022/04/22 07:23:01;;;;;;;17.97;16.27;;;17.90;95.50;;;;;;5964162;23;20478;-80
2022/04/22 07:25:28;;;;;;;17.17;15.67;;;18.30;94.50;;;;;;5967666;23;21301;-80
2022/04/22 07:27:58;;;;;;;16.60;15.17;;;18.60;93.40;;;;;;5971762;24;20434;-80
2022/04/22 07:30:26;;;;;;;16.80;15.40;;;18.70;92.70;;;;;;5964153;23;20789;-80
2022/04/22 07:32:53;;;;;;;17.50;15.90;;;18.80;91.90;;;;;;5966144;24;20563;-80
2022/04/22 07:35:22;;;;;;;17.50;16.03;;;19.00;91.60;;;;;;5971467;24;20576;-80
2022/04/22 07:37:50;;;;;;;17.40;15.80;;;19.20;90.80;;;;;;5971060;24;20450;-80
2022/04/22 07:40:21;;;;;;;16.83;15.40;;;19.60;90.30;;;;;;5966796;24;20443;-80
2022/04/22 07:48:20;;;;;;;16.43;14.93;;;20.50;84.10;;;;;;5971057;23;20442;-80
2022/04/22 07:50:48;;;;;;;16.37;15.07;;;20.60;84.00;;;;;;5972697;23;20445;-80
2022/04/22 07:53:15;;;;;;;17.47;15.97;;;20.80;83.40;;;;;;5970313;24;20465;-80
2022/04/22 07:55:44;;;;;;;16.80;15.40;;;21.00;82.90;;;;;;5973269;24;20961;-81
2022/04/22 07:58:13;;;;;;;15.37;14.17;;;20.20;79.20;;;;;;5971581;23;20509;-76
2022/04/22 08:00:40;;;;;;;15.37;14.07;;;19.80;82.20;;;;;;5971920;24;20500;-76
2022/04/22 08:03:07;;;;;;;16.07;14.67;;;19.90;81.00;;;;;;5964094;23;20562;-81
2022/04/22 08:05:35;;;;;;;14.50;13.40;;;20.20;80.80;;;;;;5967390;24;20541;-80
2022/04/22 08:08:02;;;;;;;16.10;14.80;;;20.60;79.90;;;;;;5968993;24;20512;-80
2022/04/22 08:10:29;;;;;;;14.97;13.77;;;19.90;78.10;;;;;;5970734;24;20521;-81
2022/04/22 08:12:57;;;;;;;17.60;16.10;;;19.40;81.00;;;;;;5968997;23;20462;-81
2022/04/22 08:15:24;;;;;;;16.13;14.73;;;19.00;80.50;;;;;;5967792;24;20549;-79
2022/04/22 08:17:51;;;;;;;15.80;14.50;;;18.20;82.50;;;;;;5970827;24;20521;-81
2022/04/22 08:20:19;;;;;;;16.10;14.60;;;18.40;83.10;;;;;;5977000;24;20442;-80
2022/04/22 08:22:47;;;;;;;16.07;14.57;;;18.80;83.10;;;;;;5981566;24;20797;-81
2022/04/22 08:25:14;;;;;;;15.43;14.20;;;19.10;82.80;;;;;;5986492;24;20879;-80
2022/04/22 08:27:42;;;;;;;14.57;13.47;;;19.10;82.50;;;;;;5982462;24;20478;-81
2022/04/22 08:30:11;;;;;;;14.80;13.60;;;19.60;81.70;;;;;;5983484;24;20461;-80
2022/04/22 08:32:38;;;;;;;17.00;15.70;;;20.30;79.10;;;;;;5980067;23;20470;-81
2022/04/22 08:35:09;;;;;;;14.17;13.10;;;20.90;77.60;;;;;;5970495;24;20533;-80
2022/04/22 08:37:37;;;;;;;15.47;14.17;;;21.60;76.60;;;;;;5970983;23;22182;-81
2022/04/22 08:40:06;;;;;;;14.27;13.17;;;21.50;72.90;;;;;;5969768;24;20537;-80
2022/04/22 08:42:35;;;;;;;14.93;13.67;;;21.60;74.30;;;;;;5966075;23;20467;-81
2022/04/22 08:45:02;;;;;;;14.93;13.73;;;22.10;74.20;;;;;;5969827;23;20987;-81
2022/04/22 08:50:17;;;;;;;14.70;13.50;;;23.70;71.10;;;;;;5967080;24;20891;-81
2022/04/22 08:52:49;;;;;;;13.73;12.70;;;24.40;68.50;;;;;;5966509;23;20470;-82
2022/04/22 08:55:18;;;;;;;14.17;13.07;;;24.60;66.60;;;;;;5968984;24;20473;-81
2022/04/22 08:57:47;;;;;;;13.70;12.50;;;25.00;64.30;;;;;;5970106;24;20442;-82
2022/04/22 09:00:16;;;;;;;13.60;12.60;;;25.30;62.20;;;;;;5972630;24;20450;-77
2022/04/22 09:02:44;;;;;;;13.93;12.83;;;25.30;62.30;;;;;;5963445;23;20532;-81
2022/04/22 09:05:11;;;;;;;13.33;12.23;;;24.20;62.00;;;;;;5971378;24;20770;-81
2022/04/22 09:07:42;;;;;;;14.73;13.60;;;23.80;62.70;;;;;;5968461;23;20450;-82
2022/04/22 09:10:09;;;;;;;14.57;13.27;;;24.00;62.50;;;;;;5967231;24;21057;-81
2022/04/22 09:12:37;;;;;;;14.03;12.83;;;24.20;62.90;;;;;;5965328;23;21859;-82
2022/04/22 09:15:06;;;;;;;13.70;12.70;;;24.70;62.80;;;;;;5971066;23;20454;-82
2022/04/22 09:17:35;;;;;;;14.83;13.73;;;25.00;62.70;;;;;;5966784;24;20445;-82
2022/04/22 09:20:06;;;;;;;15.40;14.20;;;25.20;59.80;;;;;;5970515;23;20573;-81
2022/04/22 09:22:35;;;;;;;15.13;14.03;;;25.30;59.60;;;;;;5969041;23;20462;-82
2022/04/22 09:25:04;;;;;;;13.23;12.20;;;25.30;60.00;;;;;;5960293;24;20479;-81
2022/04/22 09:27:35;;;;;;;13.70;12.70;;;25.20;61.60;;;;;;5968611;24;20464;-81
2022/04/22 09:30:03;;;;;;;14.43;13.40;;;25.50;59.60;;;;;;5971338;24;20438;-81
2022/04/22 09:32:32;;;;;;;13.70;12.70;;;25.50;59.30;;;;;;5961724;23;21040;-81
2022/04/22 09:35:09;;;;;;;13.03;11.93;;;25.90;58.80;;;;;;5965201;23;20458;-82
2022/04/22 09:43:23;;;;;;;13.47;12.30;;;26.40;57.90;;;;;;5971792;24;20536;-80
2022/04/22 09:45:52;;;;;;;14.03;12.93;;;26.10;57.40;;;;;;5968728;23;20860;-82
2022/04/22 09:48:20;;;;;;;13.63;12.63;;;26.30;56.80;;;;;;5967859;24;20445;-80
2022/04/22 09:50:52;;;;;;;12.83;11.90;;;26.70;56.60;;;;;;5968692;23;20975;-81
2022/04/22 09:53:28;;;;;;;12.33;11.37;;;26.60;56.40;;;;;;5964334;24;20451;-80
2022/04/22 09:55:56;;;;;;;13.70;12.60;;;26.50;56.40;;;;;;5962414;23;20987;-83
2022/04/22 09:58:24;;;;;;;13.03;12.03;;;26.20;56.20;;;;;;5965804;24;20855;-82
2022/04/22 10:01:00;;;;;;;13.60;12.60;;;26.40;56.40;;;;;;5960584;23;21055;-82
2022/04/22 10:03:32;;;;;;;13.73;12.63;;;26.40;55.40;;;;;;5969815;23;20455;-83
2022/04/22 10:06:01;;;;;;;13.77;12.67;;;25.90;56.50;;;;;;5967263;23;20441;-80
2022/04/22 10:08:31;;;;;;;13.63;12.63;;;25.50;56.70;;;;;;5969407;24;20468;-82
2022/04/22 10:11:00;;;;;;;13.40;12.20;;;25.10;57.40;;;;;;5965645;23;20553;-83
2022/04/22 10:13:33;;;;;;;12.53;11.60;;;25.20;57.80;;;;;;5967722;24;20439;-83
2022/04/22 10:16:02;;;;;;;12.80;11.70;;;25.60;57.30;;;;;;5964774;23;20472;-82
2022/04/22 10:18:30;;;;;;;13.00;12.00;;;26.10;56.50;;;;;;5971099;24;20440;-82
2022/04/22 10:20:58;;;;;;;12.30;11.20;;;26.40;55.90;;;;;;5968822;24;20482;-83
2022/04/22 10:23:29;;;;;;;12.40;11.50;;;26.60;56.10;;;;;;5973449;24;20444;-83
2022/04/22 10:25:56;;;;;;;13.17;12.10;;;26.80;55.70;;;;;;5966148;24;20480;-84
2022/04/22 10:28:24;;;;;;;14.10;13.10;;;27.20;54.40;;;;;;5972223;24;20464;-83
2022/04/22 10:30:54;;;;;;;13.00;12.10;;;27.70;53.80;;;;;;5971656;23;20548;-83
2022/04/22 10:33:26;;;;;;;10.50;9.80;;;27.70;53.50;;;;;;5968513;24;20441;-81
2022/04/22 10:35:58;;;;;;;13.70;12.70;;;27.80;53.80;;;;;;5967668;24;20530;-80
2022/04/22 10:38:33;;;;;;;13.30;12.30;;;27.90;52.90;;;;;;5974360;24;20462;-79
2022/04/22 10:41:01;;;;;;;12.37;11.37;;;27.40;53.40;;;;;;5967370;23;20467;-79
2022/04/22 10:43:29;;;;;;;13.63;12.63;;;26.80;54.50;;;;;;5969653;23;20441;-78
2022/04/22 10:48:41;;;;;;;10.97;10.17;;;26.90;54.40;;;;;;5972774;24;20456;-82
2022/04/22 10:51:09;;;;;;;13.43;12.43;;;27.40;53.90;;;;;;5971955;24;20817;-83
2022/04/22 10:53:49;;;;;;;12.03;11.13;;;27.50;53.10;;;;;;5972572;24;20446;-83
2022/04/22 10:56:36;;;;;;;13.47;12.37;;;27.80;53.00;;;;;;5972863;24;20507;-82
2022/04/22 10:59:28;;;;;;;13.60;12.60;;;27.90;52.70;;;;;;5972758;24;20446;-82
2022/04/22 11:01:56;;;;;;;12.23;11.43;;;27.90;52.90;;;;;;5973042;24;20454;-82
2022/04/22 11:04:28;;;;;;;12.83;11.90;;;28.20;52.70;;;;;;5964896;24;20446;-81
2022/04/22 11:06:56;;;;;;;11.33;10.53;;;28.60;51.60;;;;;;5968964;24;21748;-83
2022/04/22 11:09:29;;;;;;;13.47;12.57;;;28.70;51.70;;;;;;5972118;24;20446;-83
2022/04/22 11:11:58;;;;;;;13.03;12.03;;;28.50;50.50;;;;;;5971994;24;20783;-83
2022/04/22 11:14:26;;;;;;;12.43;11.33;;;27.70;51.70;;;;;;5964638;23;20484;-83
2022/04/22 11:16:55;;;;;;;11.10;10.30;;;27.00;52.70;;;;;;5967271;23;20484;-78
2022/04/22 11:19:27;;;;;;;12.73;11.73;;;27.10;53.00;;;;;;5968023;23;20445;-83
2022/04/22 11:21:57;;;;;;;13.27;12.27;;;27.30;52.60;;;;;;5972855;23;21003;-82
2022/04/22 11:24:29;;;;;;;12.40;11.47;;;27.40;53.00;;;;;;5968218;23;20545;-82
2022/04/22 11:27:10;;;;;;;12.53;11.63;;;27.10;53.20;;;;;;5964603;23;20531;-84
2022/04/22 11:29:37;;;;;;;13.20;12.20;;;26.90;53.40;;;;;;5973840;23;20438;-82
2022/04/22 11:32:12;;;;;;;11.77;10.97;;;27.00;53.50;;;;;;5975198;23;20515;-84
2022/04/22 11:35:12;;;;;;;12.07;11.17;;;27.50;53.10;;;;;;5969623;23;20453;-84
2022/04/22 11:37:39;;;;;;;14.20;13.10;;;27.90;52.10;;;;;;5970528;23;20442;-81
2022/04/22 11:40:09;;;;;;;13.33;12.40;;;27.50;52.70;;;;;;5972254;23;20450;-81
2022/04/22 11:42:43;;;;;;;12.20;11.30;;;27.10;52.00;;;;;;5967517;23;20442;-83
2022/04/22 11:45:13;;;;;;;11.40;10.60;;;27.30;52.60;;;;;;5968967;23;20437;-82
2022/04/22 11:47:40;;;;;;;12.03;11.23;;;27.40;52.10;;;;;;5968171;23;20465;-83
2022/04/22 11:50:09;;;;;;;12.87;11.87;;;27.20;52.10;;;;;;5969020;23;20937;-84
2022/04/22 11:52:36;;;;;;;12.27;11.30;;;26.20;53.30;;;;;;5957937;23;20454;-82
2022/04/22 11:55:04;;;;;;;14.27;13.17;;;26.20;53.70;;;;;;5968474;23;20433;-78
2022/04/22 11:57:36;;;;;;;12.10;11.10;;;26.10;52.50;;;;;;5964185;23;20452;-77
2022/04/22 12:05:41;;;;;;;11.67;10.83;;;24.90;55.20;;;;;;5972350;23;20440;-82
2022/04/22 12:08:11;;;;;;;12.23;11.37;;;25.50;54.90;;;;;;5972935;23;20458;-75
2022/04/22 12:10:38;;;;;;;8.90;8.20;;;25.70;52.50;;;;;;5967485;23;20538;-77
2022/04/22 12:13:08;;;;;;;10.57;9.67;;;25.40;54.10;;;;;;5956925;24;20475;-83
2022/04/22 12:15:39;;;;;;;10.13;9.37;;;25.50;53.30;;;;;;5966506;24;20475;-83
2022/04/22 12:18:07;;;;;;;11.40;10.60;;;25.80;53.10;;;;;;5969052;23;20444;-83
2022/04/22 12:20:34;;;;;;;9.87;9.17;;;25.80;52.10;;;;;;5970389;23;20854;-83
2022/04/22 12:23:01;;;;;;;10.10;9.50;;;25.90;52.70;;;;;;5974321;24;20522;-84
2022/04/22 12:25:28;;;;;;;11.37;10.67;;;26.20;51.90;;;;;;5969210;24;20457;-82
2022/04/22 12:28:13;;;;;;;10.53;9.83;;;25.90;50.40;;;;;;5974615;24;20438;-83
2022/04/22 12:30:41;;;;;;;9.70;9.00;;;24.80;52.00;;;;;;5963527;23;20470;-80
2022/04/22 12:33:17;;;;;;;9.40;8.70;;;24.10;54.10;;;;;;5967388;24;20545;-83
2022/04/22 12:35:45;;;;;;;10.63;9.80;;;24.20;54.30;;;;;;5967891;24;20449;-82
2022/04/22 12:38:13;;;;;;;9.77;9.07;;;24.70;53.90;;;;;;5975509;24;20442;-83
2022/04/22 12:40:48;;;;;;;11.23;10.33;;;25.10;53.60;;;;;;5973464;23;20547;-83
2022/04/22 12:43:28;;;;;;;11.30;10.50;;;25.10;53.00;;;;;;5974991;24;20452;-84
2022/04/22 12:52:11;;;;;;;9.70;9.00;;;25.60;53.60;;;;;;5972816;23;20477;-81
2022/04/22 12:54:42;;;;;;;11.03;10.23;;;26.20;52.60;;;;;;5973971;23;20456;-81
2022/04/22 12:57:13;;;;;;;10.10;9.30;;;26.50;51.50;;;;;;5967599;23;20493;-81
2022/04/22 12:59:46;;;;;;;12.33;11.30;;;26.30;50.80;;;;;;5969260;24;20439;-81
2022/04/22 13:02:14;;;;;;;11.77;10.87;;;25.20;51.80;;;;;;5965128;23;20445;-80
2022/04/22 13:04:56;;;;;;;10.70;9.80;;;24.70;53.10;;;;;;5973536;24;21142;-81
2022/04/22 13:07:24;;;;;;;11.83;10.83;;;24.70;53.30;;;;;;5969436;24;20453;-80
2022/04/22 13:09:51;;;;;;;11.43;10.53;;;25.20;53.50;;;;;;5973906;23;20518;-81
2022/04/22 13:12:18;;;;;;;11.17;10.37;;;25.60;53.30;;;;;;5974208;23;20441;-81
2022/04/22 13:14:46;;;;;;;10.57;9.87;;;25.80;52.60;;;;;;5974884;23;20516;-81
2022/04/22 13:17:25;;;;;;;10.47;9.77;;;25.70;52.60;;;;;;5972902;24;20474;-80
2022/04/22 13:19:52;;;;;;;9.83;9.20;;;25.50;52.40;;;;;;5972570;23;20839;-81
2022/04/22 13:22:20;;;;;;;10.40;9.70;;;25.40;52.70;;;;;;5963276;24;20445;-81
2022/04/22 13:24:47;;;;;;;11.30;10.50;;;25.60;52.70;;;;;;5976315;24;20438;-80
2022/04/22 13:27:15;;;;;;;9.33;8.50;;;26.00;52.30;;;;;;5972968;23;20476;-82
2022/04/22 13:29:42;;;;;;;12.50;11.60;;;26.00;52.50;;;;;;5973683;23;21692;-80
2022/04/22 13:32:11;;;;;;;9.40;8.80;;;25.40;51.60;;;;;;5967815;24;20449;-81
2022/04/22 13:34:38;;;;;;;11.60;10.90;;;25.00;52.90;;;;;;5964514;24;20509;-80
2022/04/22 13:37:06;;;;;;;10.33;9.63;;;24.80;52.90;;;;;;5969020;23;21004;-85
2022/04/22 13:39:33;;;;;;;9.97;9.27;;;24.80;53.40;;;;;;5972359;23;20499;-85
2022/04/22 13:42:00;;;;;;;9.80;9.20;;;26.00;52.80;;;;;;5974892;24;20456;-84
2022/04/22 13:52:43;;;;;;;9.03;8.43;;;28.40;48.30;;;;;;5973302;23;20454;-86
2022/04/22 13:55:11;;;;;;;9.80;9.00;;;27.90;48.30;;;;;;5973201;24;20458;-85
2022/04/22 13:57:37;;;;;;;11.30;10.47;;;27.80;49.00;;;;;;5974610;24;20544;-89